createdAt,value
2019-01-23T00:00:01.141Z,-2.50
2019-01-23T00:02:27.501Z,-2.40
2019-01-23T00:04:53.792Z,-2.50
2019-01-23T00:07:20.180Z,-2.50
2019-01-23T00:09:46.586Z,-2.50
2019-01-23T00:12:12.943Z,-2.60
2019-01-23T00:14:39.359Z,-2.60
2019-01-23T00:17:05.637Z,-2.60
2019-01-23T00:19:31.991Z,-2.60
2019-01-23T00:21:58.381Z,-2.50
2019-01-23T00:24:24.685Z,-2.60
2019-01-23T00:26:51.060Z,-2.60
2019-01-23T00:29:17.461Z,-2.60
2019-01-23T00:31:43.747Z,-2.60
2019-01-23T00:34:10.145Z,-2.60
2019-01-23T00:36:36.658Z,-2.70
2019-01-23T00:39:05.845Z,-2.70
2019-01-23T00:41:32.224Z,-2.70
2019-01-23T00:43:58.527Z,-2.70
2019-01-23T00:46:24.776Z,-2.70
2019-01-23T00:48:51.984Z,-2.70
2019-01-23T00:51:18.337Z,-2.70
2019-01-23T00:53:44.625Z,-2.70
2019-01-23T00:56:10.982Z,-2.80
2019-01-23T00:58:37.354Z,-2.80
2019-01-23T01:01:04.249Z,-2.90
2019-01-23T01:03:30.605Z,-2.90
2019-01-23T01:05:56.992Z,-2.90
2019-01-23T01:08:23.381Z,-2.90
2019-01-23T01:10:49.757Z,-2.80
2019-01-23T01:13:16.149Z,-2.80
2019-01-23T01:15:42.632Z,-2.90
2019-01-23T01:18:09.106Z,-2.90
2019-01-23T01:20:35.597Z,-2.90
2019-01-23T01:23:01.956Z,-2.90
2019-01-23T01:25:28.443Z,-2.90
2019-01-23T01:27:54.832Z,-2.90
2019-01-23T01:30:23.233Z,-2.90
2019-01-23T01:32:49.716Z,-2.90
2019-01-23T01:35:16.089Z,-2.90
2019-01-23T01:37:44.354Z,-2.90
2019-01-23T01:40:13.061Z,-2.90
2019-01-23T01:42:39.441Z,-2.80
2019-01-23T01:45:07.520Z,-2.80
2019-01-23T01:47:33.918Z,-2.80
2019-01-23T01:50:00.322Z,-2.80
2019-01-23T01:52:26.591Z,-2.90
2019-01-23T01:54:53.381Z,-2.80
2019-01-23T01:57:19.855Z,-2.80
2019-01-23T01:59:46.146Z,-2.80
2019-01-23T02:02:12.417Z,-2.80
2019-01-23T02:04:38.763Z,-2.80
2019-01-23T02:07:05.083Z,-2.80
2019-01-23T02:09:35.471Z,-2.80
2019-01-23T02:11:59.820Z,-2.70
2019-01-23T02:14:26.210Z,-2.70
2019-01-23T02:16:52.488Z,-2.70
2019-01-23T02:19:18.760Z,-2.70
2019-01-23T02:21:45.132Z,-2.60
2019-01-23T02:24:11.699Z,-2.60
2019-01-23T02:26:38.113Z,-2.60
2019-01-23T02:29:09.433Z,-2.60
2019-01-23T02:31:32.760Z,-2.60
2019-01-23T02:33:59.136Z,-2.60
2019-01-23T02:36:25.522Z,-2.60
2019-01-23T02:38:51.909Z,-2.60
2019-01-23T02:41:18.279Z,-2.60
2019-01-23T02:43:44.527Z,-2.60
2019-01-23T02:46:11.000Z,-2.50
2019-01-23T02:48:37.248Z,-2.50
2019-01-23T02:51:03.771Z,-2.50
2019-01-23T02:53:30.024Z,-2.50
2019-01-23T02:55:56.296Z,-2.50
2019-01-23T02:58:23.613Z,-2.50
2019-01-23T03:00:49.880Z,-2.60
2019-01-23T03:03:16.439Z,-2.70
2019-01-23T03:05:42.838Z,-2.70
2019-01-23T03:08:09.119Z,-2.70
2019-01-23T03:10:35.645Z,-2.70
2019-01-23T03:13:02.130Z,-2.80
2019-01-23T03:15:28.815Z,-2.90
2019-01-23T03:17:55.114Z,-2.90
2019-01-23T03:20:21.509Z,-3.00
2019-01-23T03:22:48.072Z,-3.10
2019-01-23T03:25:14.670Z,-3.00
2019-01-23T03:27:41.187Z,-3.10
2019-01-23T03:30:13.379Z,-3.10
2019-01-23T03:32:39.674Z,-3.10
2019-01-23T03:35:08.149Z,-3.00
2019-01-23T03:37:34.417Z,-3.00
2019-01-23T03:40:00.715Z,-3.00
2019-01-23T03:42:27.280Z,-2.90
2019-01-23T03:44:53.711Z,-2.90
2019-01-23T03:47:20.260Z,-2.90
2019-01-23T03:49:47.028Z,-2.90
2019-01-23T03:52:13.442Z,-2.90
2019-01-23T03:54:39.803Z,-2.90
2019-01-23T03:57:06.505Z,-2.90
2019-01-23T03:59:32.992Z,-2.90
2019-01-23T04:01:59.367Z,-2.80
2019-01-23T04:04:26.094Z,-2.80
2019-01-23T04:06:52.482Z,-2.80
2019-01-23T04:09:18.779Z,-2.70
2019-01-23T04:11:45.084Z,-2.70
2019-01-23T04:14:11.440Z,-2.70
2019-01-23T04:16:37.805Z,-2.70
2019-01-23T04:19:04.115Z,-2.70
2019-01-23T04:21:30.488Z,-2.70
2019-01-23T04:23:56.857Z,-2.60
2019-01-23T04:26:23.245Z,-2.60
2019-01-23T04:28:49.544Z,-2.60
2019-01-23T04:31:15.897Z,-2.60
2019-01-23T04:33:42.248Z,-2.60
2019-01-23T04:36:08.657Z,-2.50
2019-01-23T04:38:34.926Z,-2.50
2019-01-23T04:41:01.196Z,-2.50
2019-01-23T04:43:27.506Z,-2.60
2019-01-23T04:45:53.863Z,-2.60
2019-01-23T04:48:20.230Z,-2.60
2019-01-23T04:51:04.955Z,-2.60
2019-01-23T04:53:33.128Z,-2.60
2019-01-23T04:56:00.507Z,-2.50
2019-01-23T04:58:26.894Z,-2.60
2019-01-23T05:00:53.250Z,-2.60
2019-01-23T05:03:19.659Z,-2.60
2019-01-23T05:05:45.971Z,-2.60
2019-01-23T05:08:12.292Z,-2.60
2019-01-23T05:10:38.626Z,-2.60
2019-01-23T05:13:05.092Z,-2.60
2019-01-23T05:15:31.506Z,-2.60
2019-01-23T05:17:58.746Z,-2.70
2019-01-23T05:20:25.128Z,-2.60
2019-01-23T05:22:51.461Z,-2.60
2019-01-23T05:25:17.878Z,-2.60
2019-01-23T05:27:46.683Z,-2.60
2019-01-23T05:30:16.368Z,-2.60
2019-01-23T05:32:42.697Z,-2.60
2019-01-23T05:35:09.316Z,-2.60
2019-01-23T05:37:35.700Z,-2.50
2019-01-23T05:40:05.189Z,-2.60
2019-01-23T05:42:31.484Z,-2.50
2019-01-23T05:44:57.857Z,-2.50
2019-01-23T05:47:24.145Z,-2.50
2019-01-23T05:49:50.752Z,-2.60
2019-01-23T05:52:16.992Z,-2.60
2019-01-23T05:54:43.296Z,-2.50
2019-01-23T05:57:09.631Z,-2.50
2019-01-23T05:59:35.922Z,-2.50
2019-01-23T06:02:02.371Z,-2.50
2019-01-23T06:04:28.665Z,-2.50
2019-01-23T06:06:54.940Z,-2.60
2019-01-23T06:09:22.788Z,-2.50
2019-01-23T06:11:49.378Z,-2.50
2019-01-23T06:14:15.651Z,-2.50
2019-01-23T06:16:41.923Z,-2.50
2019-01-23T06:19:08.176Z,-2.50
2019-01-23T06:21:34.452Z,-2.50
2019-01-23T06:24:00.764Z,-2.60
2019-01-23T06:26:27.048Z,-2.60
2019-01-23T06:28:53.422Z,-2.60
2019-01-23T06:31:20.925Z,-2.60
2019-01-23T06:33:47.213Z,-2.60
2019-01-23T06:36:13.480Z,-2.70
2019-01-23T06:38:39.809Z,-2.70
2019-01-23T06:41:06.107Z,-2.70
2019-01-23T06:43:32.486Z,-2.70
2019-01-23T06:45:58.880Z,-2.70
2019-01-23T06:48:25.244Z,-2.80
2019-01-23T06:50:51.628Z,-2.80
2019-01-23T06:53:17.916Z,-2.80
2019-01-23T06:55:44.397Z,-2.70
2019-01-23T06:58:10.707Z,-2.80
2019-01-23T07:00:36.985Z,-2.90
2019-01-23T07:03:03.472Z,-2.90
2019-01-23T07:05:29.890Z,-2.90
2019-01-23T07:07:56.333Z,-3.00
2019-01-23T07:10:23.294Z,-2.90
2019-01-23T07:12:49.851Z,-2.90
2019-01-23T07:15:16.833Z,-2.90
2019-01-23T07:17:43.058Z,-2.90
2019-01-23T07:20:12.951Z,-3.00
2019-01-23T07:22:39.337Z,-3.00
2019-01-23T07:25:08.018Z,-3.00
2019-01-23T07:27:34.577Z,-3.00
2019-01-23T07:30:00.868Z,-3.00
2019-01-23T07:32:27.306Z,-2.90
2019-01-23T07:34:53.727Z,-2.90
2019-01-23T07:37:20.092Z,-2.90
2019-01-23T07:39:46.472Z,-3.00
2019-01-23T07:42:12.901Z,-3.00
2019-01-23T07:44:39.269Z,-2.90
2019-01-23T07:47:05.743Z,-3.00
2019-01-23T07:49:32.037Z,-3.00
2019-01-23T07:51:58.431Z,-3.00
2019-01-23T07:54:24.818Z,-3.00
2019-01-23T07:56:51.177Z,-3.00
2019-01-23T07:59:17.505Z,-3.00
2019-01-23T08:01:43.857Z,-3.00
2019-01-23T08:04:10.344Z,-3.00
2019-01-23T08:06:36.660Z,-2.90
2019-01-23T08:09:06.045Z,-3.00
2019-01-23T08:11:32.512Z,-3.00
2019-01-23T08:13:58.864Z,-2.90
2019-01-23T08:16:25.438Z,-2.90
2019-01-23T08:18:51.764Z,-2.90
2019-01-23T08:21:18.113Z,-2.90
2019-01-23T08:23:44.395Z,-2.80
2019-01-23T08:26:10.788Z,-2.80
2019-01-23T08:28:37.257Z,-2.80
2019-01-23T08:31:03.872Z,-2.80
2019-01-23T08:33:30.245Z,-2.80
2019-01-23T08:35:56.487Z,-2.80
2019-01-23T08:38:22.889Z,-2.80
2019-01-23T08:40:49.221Z,-2.70
2019-01-23T08:43:15.695Z,-2.70
2019-01-23T08:45:42.115Z,-2.70
2019-01-23T08:48:08.617Z,-2.70
2019-01-23T08:50:56.664Z,-2.70
2019-01-23T08:53:23.043Z,-2.70
2019-01-23T08:55:53.552Z,-2.70
2019-01-23T08:58:17.660Z,-2.60
2019-01-23T09:00:46.038Z,-2.50
2019-01-23T09:03:12.276Z,-2.60
2019-01-23T09:05:38.719Z,-2.70
2019-01-23T09:08:05.220Z,-2.60
2019-01-23T09:10:31.781Z,-2.60
2019-01-23T09:12:58.092Z,-2.60
2019-01-23T09:15:24.500Z,-2.60
2019-01-23T09:17:50.883Z,-2.50
2019-01-23T09:20:18.693Z,-2.50
2019-01-23T09:22:45.151Z,-2.40
2019-01-23T09:25:17.764Z,-2.40
2019-01-23T09:27:44.698Z,-2.30
2019-01-23T09:30:29.519Z,-2.20
2019-01-23T09:33:25.623Z,-2.20
2019-01-23T09:36:12.431Z,-2.10
2019-01-23T09:39:00.808Z,-2.00
2019-01-23T09:41:53.813Z,-1.90
2019-01-23T09:44:55.224Z,-1.90
2019-01-23T09:47:28.032Z,-1.90
2019-01-23T09:50:01.099Z,-1.80
2019-01-23T09:52:34.112Z,-1.80
2019-01-23T09:55:00.464Z,-1.80
2019-01-23T09:57:26.948Z,-1.70
2019-01-23T09:59:53.307Z,-1.70
2019-01-23T10:02:19.746Z,-1.70
2019-01-23T10:04:46.009Z,-1.60
2019-01-23T10:07:12.318Z,-1.50
2019-01-23T10:09:38.590Z,-1.40
2019-01-23T10:12:05.077Z,-1.40
2019-01-23T10:14:31.468Z,-1.30
2019-01-23T10:16:57.874Z,-1.30
2019-01-23T10:19:24.148Z,-1.20
2019-01-23T10:21:50.542Z,-1.20
2019-01-23T10:24:16.832Z,-1.20
2019-01-23T10:26:43.411Z,-1.10
2019-01-23T10:29:09.740Z,-1.10
2019-01-23T10:31:36.036Z,-1.00
2019-01-23T10:34:02.892Z,-1.00
2019-01-23T10:36:29.294Z,-0.90
2019-01-23T10:38:55.560Z,-0.90
2019-01-23T10:41:22.040Z,-0.90
2019-01-23T10:43:48.552Z,-0.80
2019-01-23T10:46:14.884Z,-0.80
2019-01-23T10:48:41.286Z,-0.80
2019-01-23T10:51:07.789Z,-0.70
2019-01-23T10:53:34.253Z,-0.70
2019-01-23T10:56:00.620Z,-0.70
2019-01-23T10:58:27.049Z,-0.60
2019-01-23T11:00:53.415Z,-0.50
2019-01-23T11:03:19.879Z,-0.50
2019-01-23T11:05:46.365Z,-0.40
2019-01-23T11:08:12.651Z,-0.40
2019-01-23T11:10:39.122Z,-0.40
2019-01-23T11:13:05.617Z,-0.30
2019-01-23T11:15:31.992Z,-0.30
2019-01-23T11:17:58.357Z,-0.30
2019-01-23T11:20:24.850Z,-0.30
2019-01-23T11:22:51.313Z,-0.30
2019-01-23T11:25:17.796Z,-0.30
2019-01-23T11:27:44.751Z,-0.20
2019-01-23T11:30:20.033Z,-0.20
2019-01-23T11:32:46.501Z,-0.10
2019-01-23T11:35:13.456Z,0.00
2019-01-23T11:37:39.945Z,-0.10
2019-01-23T11:40:10.057Z,-0.10
2019-01-23T11:42:36.440Z,-0.10
2019-01-23T11:45:06.109Z,-0.10
2019-01-23T11:47:32.593Z,0.00
2019-01-23T11:49:58.888Z,0.00
2019-01-23T11:52:25.240Z,0.10
2019-01-23T11:54:51.540Z,0.10
2019-01-23T11:57:17.942Z,0.20
2019-01-23T11:59:44.172Z,0.20
2019-01-23T12:02:10.754Z,0.30
2019-01-23T12:04:37.129Z,0.40
2019-01-23T12:07:03.628Z,0.50
2019-01-23T12:09:30.001Z,0.60
2019-01-23T12:11:56.472Z,0.70
2019-01-23T12:14:22.884Z,0.80
2019-01-23T12:16:49.337Z,0.90
2019-01-23T12:19:15.892Z,0.90
2019-01-23T12:21:42.173Z,1.00
2019-01-23T12:24:08.626Z,1.00
2019-01-23T12:26:35.048Z,1.00
2019-01-23T12:29:01.530Z,1.20
2019-01-23T12:31:34.667Z,1.20
2019-01-23T12:33:55.896Z,1.30
2019-01-23T12:36:22.298Z,1.30
2019-01-23T12:38:48.651Z,1.40
2019-01-23T12:41:15.144Z,1.40
2019-01-23T12:43:41.437Z,1.40
2019-01-23T12:46:07.884Z,1.40
2019-01-23T12:48:34.308Z,1.40
2019-01-23T12:51:00.781Z,1.40
2019-01-23T12:53:27.262Z,1.50
2019-01-23T12:55:53.760Z,1.50
2019-01-23T12:58:20.242Z,1.50
2019-01-23T13:00:46.626Z,1.50
2019-01-23T13:03:12.981Z,1.50
2019-01-23T13:05:39.243Z,1.50
2019-01-23T13:08:05.632Z,1.40
2019-01-23T13:10:32.192Z,1.40
2019-01-23T13:12:58.676Z,1.40
2019-01-23T13:15:26.587Z,1.40
2019-01-23T13:17:53.966Z,1.40
2019-01-23T13:20:22.060Z,1.30
2019-01-23T13:22:48.557Z,1.30
2019-01-23T13:25:16.921Z,1.30
2019-01-23T13:27:43.492Z,1.30
2019-01-23T13:30:12.869Z,1.30
2019-01-23T13:32:39.347Z,1.30
2019-01-23T13:35:09.402Z,1.20
2019-01-23T13:37:35.688Z,1.20
2019-01-23T13:40:05.155Z,1.20
2019-01-23T13:42:32.642Z,1.20
2019-01-23T13:44:58.911Z,1.20
2019-01-23T13:47:25.401Z,1.20
2019-01-23T13:49:51.893Z,1.10
2019-01-23T13:52:18.360Z,1.10
2019-01-23T13:54:44.824Z,1.10
2019-01-23T13:57:11.242Z,1.10
2019-01-23T13:59:37.500Z,1.10
2019-01-23T14:02:04.005Z,1.00
2019-01-23T14:04:30.404Z,1.00
2019-01-23T14:06:56.684Z,1.00
2019-01-23T14:09:23.052Z,1.00
2019-01-23T14:11:49.444Z,1.00
2019-01-23T14:14:15.825Z,1.00
2019-01-23T14:16:42.389Z,1.00
2019-01-23T14:19:08.816Z,1.00
2019-01-23T14:21:35.101Z,0.90
2019-01-23T14:24:01.467Z,0.90
2019-01-23T14:26:27.877Z,0.90
2019-01-23T14:28:54.338Z,0.80
2019-01-23T14:31:20.596Z,0.90
2019-01-23T14:33:46.893Z,0.90
2019-01-23T14:36:13.152Z,0.90
2019-01-23T14:38:39.544Z,0.90
2019-01-23T14:41:05.809Z,0.80
2019-01-23T14:43:32.191Z,0.80
2019-01-23T14:45:58.656Z,0.80
2019-01-23T14:48:25.160Z,0.80
2019-01-23T14:50:51.635Z,0.80
2019-01-23T14:53:18.026Z,0.70
2019-01-23T14:55:44.332Z,0.70
2019-01-23T14:58:10.820Z,0.70
2019-01-23T15:00:37.301Z,0.70
2019-01-23T15:03:04.093Z,0.70
2019-01-23T15:05:30.435Z,0.70
2019-01-23T15:07:56.904Z,0.70
2019-01-23T15:10:28.454Z,0.70
2019-01-23T15:12:55.391Z,0.60
2019-01-23T15:15:21.761Z,0.60
2019-01-23T15:17:48.253Z,0.50
2019-01-23T15:20:19.797Z,0.50
2019-01-23T15:22:46.157Z,0.50
2019-01-23T15:25:13.096Z,0.40
2019-01-23T15:27:39.333Z,0.40
2019-01-23T15:30:09.435Z,0.40
2019-01-23T15:32:35.976Z,0.30
2019-01-23T15:35:04.832Z,0.30
2019-01-23T15:37:31.136Z,0.30
2019-01-23T15:39:57.387Z,0.30
2019-01-23T15:42:23.645Z,0.20
2019-01-23T15:44:50.065Z,0.20
2019-01-23T15:47:16.430Z,0.10
2019-01-23T15:49:42.700Z,0.00
2019-01-23T15:52:09.053Z,0.00
2019-01-23T15:54:35.342Z,-0.10
2019-01-23T15:57:01.589Z,-0.20
2019-01-23T15:59:27.865Z,-0.20
2019-01-23T16:01:54.358Z,-0.30
2019-01-23T16:04:20.722Z,-0.40
2019-01-23T16:06:46.956Z,-0.40
2019-01-23T16:09:13.537Z,-0.40
2019-01-23T16:11:40.031Z,-0.50
2019-01-23T16:14:06.383Z,-0.50
2019-01-23T16:16:32.773Z,-0.60
2019-01-23T16:18:59.152Z,-0.70
2019-01-23T16:21:25.494Z,-0.80
2019-01-23T16:23:51.790Z,-0.90
2019-01-23T16:26:18.152Z,-0.90
2019-01-23T16:28:44.424Z,-0.90
2019-01-23T16:31:11.671Z,-1.00
2019-01-23T16:33:37.996Z,-1.00
2019-01-23T16:36:04.457Z,-1.00
2019-01-23T16:38:30.832Z,-1.10
2019-01-23T16:40:57.093Z,-1.10
2019-01-23T16:43:23.489Z,-1.20
2019-01-23T16:45:49.841Z,-1.20
2019-01-23T16:48:16.110Z,-1.20
2019-01-23T16:50:42.595Z,-1.30
2019-01-23T16:53:09.064Z,-1.30
2019-01-23T16:55:35.737Z,-1.30
2019-01-23T16:58:03.632Z,-1.30
2019-01-23T17:00:30.089Z,-1.40
2019-01-23T17:02:57.489Z,-1.40
2019-01-23T17:05:26.669Z,-1.50
2019-01-23T17:07:53.839Z,-1.40
2019-01-23T17:10:22.306Z,-1.50
2019-01-23T17:12:48.680Z,-1.50
2019-01-23T17:15:15.363Z,-1.40
2019-01-23T17:17:41.855Z,-1.50
2019-01-23T17:20:12.773Z,-1.50
2019-01-23T17:22:39.250Z,-1.50
2019-01-23T17:25:08.080Z,-1.50
2019-01-23T17:27:34.483Z,-1.50
2019-01-23T17:30:00.988Z,-1.50
2019-01-23T17:32:27.468Z,-1.40
2019-01-23T17:34:53.825Z,-1.40
2019-01-23T17:37:20.259Z,-1.40
2019-01-23T17:39:46.662Z,-1.30
2019-01-23T17:42:12.953Z,-1.40
2019-01-23T17:44:39.211Z,-1.40
2019-01-23T17:47:05.689Z,-1.40
2019-01-23T17:49:32.071Z,-1.40
2019-01-23T17:51:58.331Z,-1.30
2019-01-23T17:54:24.728Z,-1.30
2019-01-23T17:56:50.980Z,-1.30
2019-01-23T17:59:17.519Z,-1.30
2019-01-23T18:01:43.896Z,-1.30
2019-01-23T18:04:10.383Z,-1.30
2019-01-23T18:06:36.764Z,-1.30
2019-01-23T18:09:06.684Z,-1.30
2019-01-23T18:11:32.967Z,-1.30
2019-01-23T18:13:59.323Z,-1.30
2019-01-23T18:16:25.925Z,-1.30
2019-01-23T18:18:52.621Z,-1.30
2019-01-23T18:21:19.304Z,-1.30
2019-01-23T18:23:45.668Z,-1.30
2019-01-23T18:26:12.008Z,-1.30
2019-01-23T18:28:38.375Z,-1.30
2019-01-23T18:31:14.583Z,-1.30
2019-01-23T18:33:54.552Z,-1.30
2019-01-23T18:36:41.242Z,-1.30
2019-01-23T18:39:17.148Z,-1.30
2019-01-23T18:41:53.234Z,-1.30
2019-01-23T18:44:32.196Z,-1.30
2019-01-23T18:47:12.310Z,-1.30
2019-01-23T18:49:53.985Z,-1.30
2019-01-23T18:52:20.255Z,-1.20
2019-01-23T18:54:46.520Z,-1.20
2019-01-23T18:57:27.749Z,-1.20
2019-01-23T18:59:59.147Z,-1.20
2019-01-23T19:02:23.027Z,-1.20
2019-01-23T19:04:49.508Z,-1.20
2019-01-23T19:07:16.203Z,-1.20
2019-01-23T19:09:42.671Z,-1.20
2019-01-23T19:12:09.279Z,-1.10
2019-01-23T19:14:35.789Z,-1.10
2019-01-23T19:17:02.559Z,-1.10
2019-01-23T19:19:28.923Z,-1.10
2019-01-23T19:21:55.418Z,-1.10
2019-01-23T19:24:21.905Z,-1.10
2019-01-23T19:26:48.292Z,-1.10
2019-01-23T19:29:14.799Z,-1.10
2019-01-23T19:31:41.202Z,-1.10
2019-01-23T19:34:07.825Z,-1.10
2019-01-23T19:36:34.186Z,-1.10
2019-01-23T19:39:00.501Z,-1.10
2019-01-23T19:41:27.029Z,-1.00
2019-01-23T19:43:53.428Z,-1.00
2019-01-23T19:46:19.837Z,-1.00
2019-01-23T19:48:46.331Z,-1.00
2019-01-23T19:51:12.712Z,-1.00
2019-01-23T19:53:38.985Z,-1.00
2019-01-23T19:56:05.368Z,-1.00
2019-01-23T19:58:31.649Z,-1.00
2019-01-23T20:00:58.058Z,-1.00
2019-01-23T20:03:24.499Z,-1.00
2019-01-23T20:05:50.885Z,-1.00
2019-01-23T20:08:17.248Z,-1.00
2019-01-23T20:10:43.567Z,-1.00
2019-01-23T20:13:10.110Z,-1.00
2019-01-23T20:15:36.483Z,-1.00
2019-01-23T20:18:03.579Z,-1.00
2019-01-23T20:20:30.139Z,-1.00
2019-01-23T20:22:56.527Z,-1.00
2019-01-23T20:25:24.751Z,-1.00
2019-01-23T20:27:51.419Z,-1.00
2019-01-23T20:30:21.415Z,-1.00
2019-01-23T20:32:47.817Z,-1.00
2019-01-23T20:35:14.230Z,-1.10
2019-01-23T20:37:43.561Z,-1.10
2019-01-23T20:40:11.227Z,-1.10
2019-01-23T20:42:37.800Z,-1.10
2019-01-23T20:45:07.934Z,-1.10
2019-01-23T20:47:34.404Z,-1.10
2019-01-23T20:50:00.884Z,-1.10
2019-01-23T20:52:27.184Z,-1.10
2019-01-23T20:54:53.540Z,-1.10
2019-01-23T20:57:19.889Z,-1.10
2019-01-23T20:59:46.376Z,-1.10
2019-01-23T21:02:12.746Z,-1.00
2019-01-23T21:04:39.034Z,-1.00
2019-01-23T21:07:05.503Z,-1.00
2019-01-23T21:09:31.854Z,-1.00
2019-01-23T21:11:58.243Z,-1.00
2019-01-23T21:14:24.684Z,-1.00
2019-01-23T21:16:50.996Z,-1.00
2019-01-23T21:19:17.335Z,-1.00
2019-01-23T21:21:43.887Z,-0.90
2019-01-23T21:24:10.204Z,-0.90
2019-01-23T21:26:36.476Z,-0.90
2019-01-23T21:29:03.299Z,-0.90
2019-01-23T21:31:29.560Z,-0.90
2019-01-23T21:33:55.835Z,-0.90
2019-01-23T21:36:22.253Z,-0.90
2019-01-23T21:38:48.526Z,-0.90
2019-01-23T21:41:14.918Z,-0.80
2019-01-23T21:43:41.258Z,-0.90
2019-01-23T21:46:07.616Z,-0.80
2019-01-23T21:48:34.039Z,-0.80
2019-01-23T21:51:00.505Z,-0.80
2019-01-23T21:53:26.988Z,-0.80
2019-01-23T21:55:53.408Z,-0.80
2019-01-23T21:58:19.765Z,-0.90
2019-01-23T22:00:46.176Z,-0.90
2019-01-23T22:03:12.748Z,-0.90
2019-01-23T22:05:39.256Z,-0.80
2019-01-23T22:08:06.833Z,-0.80
2019-01-23T22:10:33.152Z,-0.80
2019-01-23T22:12:59.423Z,-0.80
2019-01-23T22:15:27.903Z,-0.90
2019-01-23T22:17:54.235Z,-0.80
2019-01-23T22:20:20.804Z,-0.90
2019-01-23T22:22:47.078Z,-0.80
2019-01-23T22:25:15.804Z,-0.80
2019-01-23T22:27:42.115Z,-0.80
2019-01-23T22:30:21.124Z,-0.80
2019-01-23T22:32:47.685Z,-0.80
2019-01-23T22:35:14.500Z,-0.80
2019-01-23T22:37:40.888Z,-0.80
2019-01-23T22:40:10.336Z,-0.80
2019-01-23T22:42:36.844Z,-0.80
2019-01-23T22:45:07.065Z,-0.80
2019-01-23T22:47:33.400Z,-0.80
2019-01-23T22:49:59.693Z,-0.80
2019-01-23T22:52:26.047Z,-0.80
2019-01-23T22:54:52.341Z,-0.80
2019-01-23T22:57:18.736Z,-0.80
2019-01-23T22:59:45.018Z,-0.80
2019-01-23T23:02:11.413Z,-0.80
2019-01-23T23:04:37.705Z,-0.80
2019-01-23T23:07:04.245Z,-0.80
2019-01-23T23:09:30.566Z,-0.80
2019-01-23T23:11:56.915Z,-0.80
2019-01-23T23:14:23.229Z,-0.80
2019-01-23T23:16:49.745Z,-0.80
2019-01-23T23:19:16.119Z,-0.80
2019-01-23T23:21:42.508Z,-0.80
2019-01-23T23:24:08.911Z,-0.80
2019-01-23T23:26:35.276Z,-0.80
2019-01-23T23:29:01.765Z,-0.80
2019-01-23T23:31:28.257Z,-0.80
2019-01-23T23:33:54.594Z,-0.80
2019-01-23T23:36:20.999Z,-0.80
2019-01-23T23:38:48.137Z,-0.80
2019-01-23T23:41:14.515Z,-0.90
2019-01-23T23:43:40.895Z,-0.90
2019-01-23T23:46:07.292Z,-0.90
2019-01-23T23:48:33.650Z,-0.90
2019-01-23T23:51:00.167Z,-0.90
2019-01-23T23:53:26.756Z,-0.90
2019-01-23T23:55:53.215Z,-0.90
2019-01-23T23:58:19.584Z,-0.90
